createdAt,value
2019-01-30T00:00:37.059Z,-4.26
2019-01-30T00:03:05.884Z,-4.28
2019-01-30T00:05:34.310Z,-4.31
2019-01-30T00:08:02.765Z,-4.34
2019-01-30T00:10:31.207Z,-4.32
2019-01-30T00:12:59.679Z,-4.32
2019-01-30T00:15:28.115Z,-4.30
2019-01-30T00:17:56.862Z,-4.17
2019-01-30T00:20:25.327Z,-4.04
2019-01-30T00:22:53.799Z,-4.00
2019-01-30T00:25:24.027Z,-3.95
2019-01-30T00:27:52.643Z,-3.92
2019-01-30T00:30:28.794Z,-3.91
2019-01-30T00:32:57.277Z,-3.81
2019-01-30T00:35:25.727Z,-3.70
2019-01-30T00:37:54.162Z,-3.67
2019-01-30T00:40:22.887Z,-3.70
2019-01-30T00:42:51.331Z,-3.70
2019-01-30T00:45:20.042Z,-3.71
2019-01-30T00:47:48.777Z,-3.73
2019-01-30T00:50:17.268Z,-3.68
2019-01-30T00:52:46.043Z,-3.67
2019-01-30T00:55:14.829Z,-3.69
2019-01-30T00:57:43.261Z,-3.62
2019-01-30T01:00:16.754Z,-3.57
2019-01-30T01:02:45.189Z,-3.54
2019-01-30T01:05:13.637Z,-3.55
2019-01-30T01:07:42.105Z,-3.58
2019-01-30T01:10:11.792Z,-3.60
2019-01-30T01:12:40.546Z,-3.64
2019-01-30T01:15:10.804Z,-3.74
2019-01-30T01:17:39.542Z,-3.81
2019-01-30T01:20:09.911Z,-3.88
2019-01-30T01:22:38.372Z,-3.89
2019-01-30T01:25:08.642Z,-3.89
2019-01-30T01:27:37.113Z,-3.79
2019-01-30T01:30:07.420Z,-3.73
2019-01-30T01:32:35.871Z,-3.71
2019-01-30T01:35:04.879Z,-3.63
2019-01-30T01:37:33.328Z,-3.56
2019-01-30T01:40:01.774Z,-3.53
2019-01-30T01:42:30.220Z,-3.51
2019-01-30T01:44:58.653Z,-3.50
2019-01-30T01:47:27.364Z,-3.48
2019-01-30T01:49:56.082Z,-3.41
2019-01-30T01:52:24.533Z,-3.32
2019-01-30T01:54:53.005Z,-3.28
2019-01-30T01:57:21.459Z,-3.32
2019-01-30T01:59:49.904Z,-3.32
2019-01-30T02:02:18.366Z,-3.34
2019-01-30T02:04:46.817Z,-3.36
2019-01-30T02:07:15.248Z,-3.36
2019-01-30T02:09:43.709Z,-3.33
2019-01-30T02:12:12.180Z,-3.37
2019-01-30T02:14:40.618Z,-3.43
2019-01-30T02:17:09.069Z,-3.47
2019-01-30T02:19:37.513Z,-3.46
2019-01-30T02:22:06.308Z,-3.44
2019-01-30T02:24:35.088Z,-3.40
2019-01-30T02:27:03.534Z,-3.40
2019-01-30T02:29:31.978Z,-3.41
2019-01-30T02:32:00.457Z,-3.40
2019-01-30T02:34:29.218Z,-3.38
2019-01-30T02:36:57.939Z,-3.34
2019-01-30T02:39:26.811Z,-3.31
2019-01-30T02:41:55.503Z,-3.30
2019-01-30T02:44:23.996Z,-3.24
2019-01-30T02:46:53.052Z,-3.17
2019-01-30T02:49:22.046Z,-3.12
2019-01-30T02:51:50.716Z,-3.08
2019-01-30T02:54:19.173Z,-3.10
2019-01-30T02:56:47.969Z,-3.06
2019-01-30T02:59:16.997Z,-3.04
2019-01-30T03:04:41.002Z,-3.02
2019-01-30T03:07:09.783Z,-3.05
2019-01-30T03:09:38.222Z,-3.04
2019-01-30T03:12:06.749Z,-3.03
2019-01-30T03:14:35.508Z,-3.03
2019-01-30T03:17:03.936Z,-3.03
2019-01-30T03:19:32.676Z,-3.08
2019-01-30T03:22:01.682Z,-3.08
2019-01-30T03:24:30.136Z,-3.10
2019-01-30T03:26:58.569Z,-3.06
2019-01-30T03:29:27.261Z,-3.09
2019-01-30T03:31:55.953Z,-3.11
2019-01-30T03:34:24.702Z,-3.16
2019-01-30T03:36:53.486Z,-3.18
2019-01-30T03:39:22.329Z,-3.20
2019-01-30T03:41:50.723Z,-3.28
2019-01-30T03:44:19.174Z,-3.31
2019-01-30T03:46:47.926Z,-3.36
2019-01-30T03:49:16.371Z,-3.42
2019-01-30T03:51:45.101Z,-3.47
2019-01-30T03:54:13.569Z,-3.53
2019-01-30T03:56:42.001Z,-3.58
2019-01-30T03:59:11.153Z,-3.60
2019-01-30T04:01:39.585Z,-3.65
2019-01-30T04:04:08.316Z,-3.67
2019-01-30T04:06:37.002Z,-3.64
2019-01-30T04:09:07.274Z,-3.62
2019-01-30T04:11:35.716Z,-3.58
2019-01-30T04:14:04.185Z,-3.57
2019-01-30T04:16:32.719Z,-3.60
2019-01-30T04:19:01.451Z,-3.62
2019-01-30T04:21:29.906Z,-3.67
2019-01-30T04:23:58.359Z,-3.64
2019-01-30T04:26:26.792Z,-3.64
2019-01-30T04:28:55.582Z,-3.60
2019-01-30T04:31:24.017Z,-3.59
2019-01-30T04:33:52.463Z,-3.59
2019-01-30T04:36:20.901Z,-3.59
2019-01-30T04:38:49.701Z,-3.59
2019-01-30T04:41:18.116Z,-3.60
2019-01-30T04:43:46.975Z,-3.62
2019-01-30T04:46:15.435Z,-3.63
2019-01-30T04:48:43.864Z,-3.62
2019-01-30T04:51:12.632Z,-3.66
2019-01-30T04:53:41.625Z,-3.70
2019-01-30T04:56:10.079Z,-3.66
2019-01-30T04:58:38.787Z,-3.64
2019-01-30T05:01:07.235Z,-3.63
2019-01-30T05:03:35.955Z,-3.61
2019-01-30T05:06:04.848Z,-3.64
2019-01-30T05:08:33.360Z,-3.64
2019-01-30T05:11:01.823Z,-3.59
2019-01-30T05:13:30.910Z,-3.60
2019-01-30T05:15:59.353Z,-3.58
2019-01-30T05:18:28.064Z,-3.60
2019-01-30T05:20:56.513Z,-3.58
2019-01-30T05:23:24.951Z,-3.56
2019-01-30T05:25:53.397Z,-3.59
2019-01-30T05:28:22.091Z,-3.60
2019-01-30T05:30:50.542Z,-3.55
2019-01-30T05:33:19.317Z,-3.52
2019-01-30T05:35:47.763Z,-3.52
2019-01-30T05:38:16.206Z,-3.50
2019-01-30T05:40:45.008Z,-3.50
2019-01-30T05:43:13.446Z,-3.51
2019-01-30T05:45:42.127Z,-3.49
2019-01-30T05:48:10.862Z,-3.51
2019-01-30T05:50:39.319Z,-3.50
2019-01-30T05:53:08.044Z,-3.47
2019-01-30T05:55:36.745Z,-3.45
2019-01-30T05:58:05.513Z,-3.44
2019-01-30T06:00:38.497Z,-3.49
2019-01-30T06:03:07.298Z,-3.51
2019-01-30T06:05:35.725Z,-3.52
2019-01-30T06:08:04.184Z,-3.53
2019-01-30T06:10:32.886Z,-3.49
2019-01-30T06:13:01.604Z,-3.50
2019-01-30T06:15:30.394Z,-3.45
2019-01-30T06:17:59.183Z,-3.42
2019-01-30T06:20:27.962Z,-3.41
2019-01-30T06:22:56.852Z,-3.38
2019-01-30T06:25:25.290Z,-3.36
2019-01-30T06:27:53.867Z,-3.76
2019-01-30T06:30:22.716Z,-3.32
2019-01-30T06:32:51.138Z,-3.34
2019-01-30T06:35:19.577Z,-3.26
2019-01-30T06:37:48.045Z,-3.26
2019-01-30T06:40:34.747Z,-3.27
2019-01-30T06:43:03.589Z,-3.19
2019-01-30T06:45:32.333Z,-3.13
2019-01-30T06:48:01.096Z,-3.13
2019-01-30T06:50:29.537Z,-3.10
2019-01-30T06:52:57.986Z,-3.11
2019-01-30T06:55:26.656Z,-3.11
2019-01-30T06:57:55.450Z,-3.13
2019-01-30T07:00:25.877Z,-3.18
2019-01-30T07:02:54.976Z,-3.17
2019-01-30T07:05:23.652Z,-3.17
2019-01-30T07:07:52.358Z,-3.16
2019-01-30T07:10:26.363Z,-3.18
2019-01-30T07:12:55.143Z,-3.21
2019-01-30T07:15:23.615Z,-3.26
2019-01-30T07:17:52.063Z,-3.31
2019-01-30T07:20:20.499Z,-3.31
2019-01-30T07:22:49.271Z,-3.29
2019-01-30T07:25:18.310Z,-3.27
2019-01-30T07:27:46.765Z,-3.25
2019-01-30T07:30:23.354Z,-3.22
2019-01-30T07:32:51.900Z,-3.17
2019-01-30T07:35:20.337Z,-3.14
2019-01-30T07:37:49.068Z,-3.11
2019-01-30T07:40:17.854Z,-3.02
2019-01-30T07:42:46.541Z,-2.97
2019-01-30T07:45:17.323Z,-2.91
2019-01-30T07:47:45.761Z,-2.83
2019-01-30T07:50:14.548Z,-2.78
2019-01-30T07:52:43.008Z,-2.74
2019-01-30T07:55:13.386Z,-2.69
2019-01-30T07:57:42.141Z,-2.67
2019-01-30T08:00:14.409Z,-2.63
2019-01-30T08:02:52.628Z,-2.58
2019-01-30T08:05:13.364Z,-2.54
2019-01-30T08:07:41.801Z,-2.47
2019-01-30T08:10:11.541Z,-2.46
2019-01-30T08:12:40.604Z,-2.45
2019-01-30T08:15:11.989Z,-2.31
2019-01-30T08:17:40.430Z,-2.25
2019-01-30T08:20:11.265Z,-2.20
2019-01-30T08:22:41.403Z,-2.09
2019-01-30T08:25:11.129Z,-2.02
2019-01-30T08:27:40.867Z,-1.99
2019-01-30T08:30:22.315Z,-1.93
2019-01-30T08:32:44.261Z,-1.82
2019-01-30T08:35:13.414Z,-1.81
2019-01-30T08:37:41.887Z,-1.67
2019-01-30T08:40:10.685Z,-1.61
2019-01-30T08:42:39.124Z,-1.46
2019-01-30T08:45:09.628Z,-1.34
2019-01-30T08:47:38.380Z,-1.22
2019-01-30T08:50:07.833Z,-1.12
2019-01-30T08:52:36.268Z,-1.08
2019-01-30T08:55:05.093Z,-0.98
2019-01-30T08:57:33.531Z,-0.94
2019-01-30T09:00:02.332Z,-1.06
2019-01-30T09:02:31.102Z,-0.97
2019-01-30T09:04:59.795Z,-1.00
2019-01-30T09:07:28.224Z,-1.04
2019-01-30T09:09:57.068Z,-1.12
2019-01-30T09:12:25.499Z,-0.95
2019-01-30T09:14:53.937Z,-0.93
2019-01-30T09:17:22.703Z,-0.75
2019-01-30T09:19:51.140Z,-0.65
2019-01-30T09:22:19.880Z,-0.57
2019-01-30T09:24:48.653Z,-0.61
2019-01-30T09:27:18.371Z,-0.57
2019-01-30T09:29:46.842Z,-0.54
2019-01-30T09:32:15.283Z,-0.49
2019-01-30T09:34:44.014Z,-0.42
2019-01-30T09:37:12.477Z,-0.27
2019-01-30T09:39:44.150Z,-0.34
2019-01-30T09:42:12.933Z,-0.14
2019-01-30T09:44:41.625Z,0.00
2019-01-30T09:47:10.350Z,0.16
2019-01-30T09:49:38.809Z,0.03
2019-01-30T09:52:07.231Z,0.09
2019-01-30T09:54:35.993Z,0.09
2019-01-30T09:57:04.405Z,0.17
2019-01-30T09:59:32.843Z,0.32
2019-01-30T10:02:01.302Z,0.42
2019-01-30T10:04:29.727Z,0.46
2019-01-30T10:06:58.463Z,0.51
2019-01-30T10:09:26.891Z,0.59
2019-01-30T10:11:55.343Z,0.48
2019-01-30T10:14:28.507Z,0.36
2019-01-30T10:16:57.362Z,0.52
2019-01-30T10:19:26.038Z,0.48
2019-01-30T10:21:54.505Z,0.62
2019-01-30T10:24:22.943Z,0.58
2019-01-30T10:26:51.584Z,0.63
2019-01-30T10:29:19.991Z,0.56
2019-01-30T10:31:48.699Z,0.50
2019-01-30T10:34:17.124Z,0.58
2019-01-30T10:36:45.597Z,0.60
2019-01-30T10:39:14.350Z,0.50
2019-01-30T10:41:43.137Z,0.57
2019-01-30T10:44:11.659Z,0.49
2019-01-30T10:46:40.260Z,0.48
2019-01-30T10:49:08.760Z,0.34
2019-01-30T10:51:37.473Z,0.40
2019-01-30T10:54:05.923Z,0.45
2019-01-30T10:56:34.633Z,0.54
2019-01-30T10:59:03.531Z,0.56
2019-01-30T11:01:31.986Z,0.63
2019-01-30T11:04:00.414Z,0.57
2019-01-30T11:06:28.846Z,0.75
2019-01-30T11:09:01.734Z,0.85
2019-01-30T11:14:22.157Z,1.12
2019-01-30T11:16:56.065Z,0.94
2019-01-30T11:19:24.662Z,1.14
2019-01-30T11:21:53.721Z,1.56
2019-01-30T11:24:22.143Z,1.75
2019-01-30T11:26:50.596Z,1.98
2019-01-30T11:29:19.398Z,1.77
2019-01-30T11:31:47.833Z,1.94
2019-01-30T11:34:16.283Z,1.78
2019-01-30T11:36:44.715Z,1.54
2019-01-30T11:39:13.174Z,1.36
2019-01-30T11:41:41.638Z,1.37
2019-01-30T11:44:10.092Z,1.34
2019-01-30T11:46:38.539Z,1.23
2019-01-30T11:49:07.241Z,1.29
2019-01-30T11:51:35.667Z,1.20
2019-01-30T11:54:04.128Z,0.86
2019-01-30T11:56:32.883Z,0.73
2019-01-30T11:59:01.680Z,0.74
2019-01-30T12:01:30.471Z,0.65
2019-01-30T12:03:58.906Z,0.58
2019-01-30T12:06:27.357Z,0.63
2019-01-30T12:08:55.817Z,0.67
2019-01-30T12:11:24.245Z,0.62
2019-01-30T12:13:52.985Z,0.46
2019-01-30T12:16:21.763Z,0.36
2019-01-30T12:18:50.227Z,0.22
2019-01-30T12:21:18.922Z,0.13
2019-01-30T12:23:47.501Z,0.10
2019-01-30T12:26:16.191Z,0.24
2019-01-30T12:28:44.704Z,0.30
2019-01-30T12:31:13.130Z,0.29
2019-01-30T12:33:41.599Z,0.25
2019-01-30T12:36:11.143Z,0.13
2019-01-30T12:38:39.930Z,0.14
2019-01-30T12:41:08.400Z,0.22
2019-01-30T12:43:37.203Z,0.31
2019-01-30T12:46:05.640Z,0.36
2019-01-30T12:48:34.364Z,0.39
2019-01-30T12:51:02.814Z,0.41
2019-01-30T12:53:31.264Z,0.30
2019-01-30T12:56:00.013Z,0.15
2019-01-30T12:58:28.798Z,0.01
2019-01-30T13:00:57.583Z,-0.02
2019-01-30T13:03:26.377Z,0.04
2019-01-30T13:05:55.163Z,0.18
2019-01-30T13:08:23.954Z,0.24
2019-01-30T13:10:52.439Z,0.37
2019-01-30T13:13:20.874Z,0.57
2019-01-30T13:15:49.323Z,0.84
2019-01-30T13:18:18.736Z,1.13
2019-01-30T13:20:47.577Z,1.18
2019-01-30T13:23:16.027Z,1.14
2019-01-30T13:25:44.746Z,0.97
2019-01-30T13:28:13.183Z,1.14
2019-01-30T13:30:43.603Z,1.29
2019-01-30T13:33:11.855Z,1.35
2019-01-30T13:35:40.345Z,1.31
2019-01-30T13:38:08.778Z,1.36
2019-01-30T13:40:39.158Z,1.31
2019-01-30T13:43:10.083Z,1.25
2019-01-30T13:45:38.562Z,1.07
2019-01-30T13:48:12.752Z,0.73
2019-01-30T13:50:41.189Z,0.63
2019-01-30T13:53:14.366Z,0.45
2019-01-30T13:55:42.184Z,0.22
2019-01-30T13:58:10.663Z,0.09
2019-01-30T14:00:39.141Z,-0.07
2019-01-30T14:03:08.290Z,-0.03
2019-01-30T14:05:36.806Z,0.00
2019-01-30T14:08:06.989Z,-0.03
2019-01-30T14:10:35.427Z,-0.05
2019-01-30T14:13:04.609Z,-0.06
2019-01-30T14:15:33.089Z,-0.06
2019-01-30T14:18:01.563Z,-0.05
2019-01-30T14:20:32.376Z,-0.04
2019-01-30T14:23:00.861Z,-0.06
2019-01-30T14:25:29.286Z,-0.11
2019-01-30T14:28:01.689Z,-0.09
2019-01-30T14:30:35.694Z,-0.07
2019-01-30T14:33:04.407Z,-0.09
2019-01-30T14:35:35.870Z,-0.14
2019-01-30T14:38:04.362Z,-0.11
2019-01-30T14:40:32.825Z,-0.11
2019-01-30T14:43:01.228Z,-0.09
2019-01-30T14:45:29.659Z,-0.15
2019-01-30T14:47:58.361Z,-0.18
2019-01-30T14:50:27.243Z,-0.26
2019-01-30T14:52:55.973Z,-0.30
2019-01-30T14:55:24.426Z,-0.35
2019-01-30T14:57:53.136Z,-0.36
2019-01-30T15:00:26.185Z,-0.39
2019-01-30T15:02:54.628Z,-0.38
2019-01-30T15:05:23.130Z,-0.38
2019-01-30T15:07:51.702Z,-0.37
2019-01-30T15:10:20.528Z,-0.38
2019-01-30T15:12:49.018Z,-0.39
2019-01-30T15:15:19.691Z,-0.37
2019-01-30T15:17:48.453Z,-0.41
2019-01-30T15:20:21.599Z,-0.41
2019-01-30T15:22:50.028Z,-0.42
2019-01-30T15:25:19.379Z,-0.46
2019-01-30T15:27:47.852Z,-0.45
2019-01-30T15:30:19.351Z,-0.46
2019-01-30T15:32:48.144Z,-0.47
2019-01-30T15:35:16.581Z,-0.50
2019-01-30T15:37:45.718Z,-0.51
2019-01-30T15:40:16.730Z,-0.53
2019-01-30T15:42:49.407Z,-0.51
2019-01-30T15:45:17.157Z,-0.52
2019-01-30T15:47:45.618Z,-0.53
2019-01-30T15:50:16.679Z,-0.52
2019-01-30T15:52:45.426Z,-0.51
2019-01-30T15:55:14.455Z,-0.50
2019-01-30T15:57:43.909Z,-0.47
2019-01-30T16:00:19.778Z,-0.52
2019-01-30T16:02:48.878Z,-0.52
2019-01-30T16:05:17.658Z,-0.54
2019-01-30T16:07:46.106Z,-0.23
2019-01-30T16:10:14.867Z,-0.23
2019-01-30T16:12:44.410Z,-0.36
2019-01-30T16:15:16.522Z,-0.44
2019-01-30T16:17:44.535Z,-0.48
2019-01-30T16:20:12.972Z,-0.50
2019-01-30T16:22:41.437Z,-0.52
2019-01-30T16:25:09.896Z,-0.51
2019-01-30T16:27:38.604Z,-0.48
2019-01-30T16:30:10.696Z,-0.50
2019-01-30T16:32:38.417Z,-0.35
2019-01-30T16:35:09.226Z,-0.38
2019-01-30T16:37:37.947Z,-0.35
2019-01-30T16:40:10.230Z,-0.38
2019-01-30T16:42:38.682Z,-0.35
2019-01-30T16:45:09.919Z,-0.39
2019-01-30T16:47:40.050Z,-0.41
2019-01-30T16:50:10.518Z,-0.45
2019-01-30T16:52:38.994Z,-0.45
2019-01-30T16:55:08.342Z,-0.49
2019-01-30T16:57:37.115Z,-0.43
2019-01-30T17:00:07.831Z,-0.42
2019-01-30T17:02:36.284Z,-0.44
2019-01-30T17:05:07.249Z,-0.43
2019-01-30T17:07:35.696Z,-0.45
2019-01-30T17:10:05.242Z,-0.39
2019-01-30T17:12:33.960Z,-0.46
2019-01-30T17:15:02.413Z,-0.40
2019-01-30T17:17:31.039Z,-0.42
2019-01-30T17:19:59.731Z,-0.39
2019-01-30T17:22:28.170Z,-0.37
2019-01-30T17:24:56.910Z,-0.38
2019-01-30T17:27:25.323Z,-0.38
2019-01-30T17:29:54.095Z,-0.38
2019-01-30T17:32:22.764Z,-0.36
2019-01-30T17:34:51.995Z,-0.33
2019-01-30T17:37:20.942Z,-0.37
2019-01-30T17:39:49.382Z,-0.32
2019-01-30T17:42:18.120Z,-0.34
2019-01-30T17:44:46.592Z,-0.23
2019-01-30T17:47:15.885Z,-0.29
2019-01-30T17:49:44.335Z,-0.23
2019-01-30T17:52:12.773Z,-0.29
2019-01-30T17:54:41.440Z,-0.24
2019-01-30T17:57:09.998Z,-0.29
2019-01-30T17:59:38.454Z,-0.29
2019-01-30T18:02:09.267Z,-0.28
2019-01-30T18:04:38.127Z,-0.26
2019-01-30T18:07:06.568Z,-0.29
2019-01-30T18:09:35.284Z,-0.13
2019-01-30T18:12:06.248Z,-0.20
2019-01-30T18:14:34.709Z,-0.26
2019-01-30T18:17:03.913Z,-0.27
2019-01-30T18:19:32.358Z,-0.23
2019-01-30T18:22:01.032Z,-0.27
2019-01-30T18:24:29.762Z,-0.31
2019-01-30T18:26:58.218Z,-0.32
2019-01-30T18:29:27.024Z,-0.31
2019-01-30T18:31:55.824Z,-0.28
2019-01-30T18:34:24.279Z,-0.28
2019-01-30T18:36:52.716Z,-0.29
2019-01-30T18:39:21.158Z,-0.29
2019-01-30T18:41:49.603Z,-0.29
2019-01-30T18:44:18.052Z,-0.27
2019-01-30T18:46:46.803Z,-0.26
2019-01-30T18:49:15.231Z,-0.28
2019-01-30T18:51:44.168Z,-0.31
2019-01-30T18:54:12.856Z,-0.25
2019-01-30T18:56:41.341Z,-0.27
2019-01-30T18:59:10.140Z,-0.30
2019-01-30T19:01:38.700Z,-0.28
2019-01-30T19:04:07.460Z,-0.30
2019-01-30T19:06:35.966Z,-0.31
2019-01-30T19:09:08.526Z,-0.27
2019-01-30T19:11:40.083Z,-0.23
2019-01-30T19:14:08.576Z,-0.24
2019-01-30T19:16:37.557Z,-0.27
2019-01-30T19:19:06.285Z,-0.30
2019-01-30T19:21:34.854Z,-0.30
2019-01-30T19:24:03.620Z,-0.30
2019-01-30T19:26:32.904Z,-0.28
2019-01-30T19:29:01.402Z,-0.21
2019-01-30T19:31:29.896Z,-0.20
2019-01-30T19:33:58.895Z,-0.21
2019-01-30T19:36:27.762Z,-0.21
2019-01-30T19:38:57.035Z,-0.19
2019-01-30T19:41:26.034Z,-0.21
2019-01-30T19:43:54.538Z,-0.23
2019-01-30T19:46:23.118Z,-0.22
2019-01-30T19:48:52.015Z,-0.24
2019-01-30T19:51:20.622Z,-0.21
2019-01-30T19:53:49.296Z,-0.23
2019-01-30T19:56:18.765Z,-0.23
2019-01-30T19:58:47.856Z,-0.22
2019-01-30T20:01:16.442Z,-0.21
2019-01-30T20:03:45.060Z,-0.23
2019-01-30T20:06:13.707Z,-0.19
2019-01-30T20:08:42.655Z,-0.21
2019-01-30T20:11:11.660Z,-0.14
2019-01-30T20:13:40.383Z,-0.15
2019-01-30T20:16:09.508Z,-0.18
2019-01-30T20:18:38.128Z,-0.16
2019-01-30T20:21:07.390Z,-0.18
2019-01-30T20:23:37.291Z,-0.15
2019-01-30T20:26:05.975Z,-0.13
2019-01-30T20:28:34.582Z,-0.13
2019-01-30T20:33:37.850Z,-0.18
2019-01-30T20:36:06.709Z,-0.21
2019-01-30T20:38:35.242Z,-0.26
2019-01-30T20:41:04.121Z,-0.25
2019-01-30T20:43:32.719Z,-0.24
2019-01-30T20:46:01.582Z,-0.30
2019-01-30T20:48:30.070Z,-0.26
2019-01-30T20:50:59.115Z,-0.31
2019-01-30T20:53:27.718Z,-0.26
2019-01-30T20:55:56.429Z,-0.28
2019-01-30T20:58:24.934Z,-0.26
2019-01-30T21:00:53.443Z,-0.28
2019-01-30T21:03:22.344Z,-0.30
2019-01-30T21:05:50.846Z,-0.35
2019-01-30T21:08:20.073Z,-0.37
2019-01-30T21:10:48.850Z,-0.42
2019-01-30T21:13:17.655Z,-0.46
2019-01-30T21:15:46.454Z,-0.50
2019-01-30T21:18:18.009Z,-0.50
2019-01-30T21:23:33.333Z,-0.58
2019-01-30T21:26:01.782Z,-0.61
2019-01-30T21:28:30.289Z,-0.65
2019-01-30T21:30:58.943Z,-0.65
2019-01-30T21:33:27.401Z,-0.67
2019-01-30T21:35:55.865Z,-0.67
2019-01-30T21:38:24.781Z,-0.69
2019-01-30T21:40:53.285Z,-0.70
2019-01-30T21:43:21.861Z,-0.72
2019-01-30T21:45:50.342Z,-0.71
2019-01-30T21:48:19.619Z,-0.72
2019-01-30T21:50:48.195Z,-0.74
2019-01-30T21:53:17.035Z,-0.73
2019-01-30T21:55:48.539Z,-0.78
2019-01-30T21:58:16.984Z,-0.75
2019-01-30T22:00:45.523Z,-0.80
2019-01-30T22:03:17.314Z,-0.84
2019-01-30T22:05:45.791Z,-0.89
2019-01-30T22:08:15.103Z,-0.82
2019-01-30T22:10:43.678Z,-0.85
2019-01-30T22:13:12.522Z,-0.87
2019-01-30T22:15:41.292Z,-0.87
2019-01-30T22:18:09.907Z,-0.89
2019-01-30T22:20:38.455Z,-0.90
2019-01-30T22:23:07.459Z,-0.86
2019-01-30T22:25:35.948Z,-0.89
2019-01-30T22:28:04.744Z,-0.95
2019-01-30T22:30:36.604Z,-0.92
2019-01-30T22:33:05.414Z,-0.99
2019-01-30T22:35:34.215Z,-0.98
2019-01-30T22:38:12.488Z,-0.97
2019-01-30T22:40:36.725Z,-1.04
2019-01-30T22:43:05.435Z,-1.07
2019-01-30T22:45:34.018Z,-1.12
2019-01-30T22:48:02.808Z,-1.08
2019-01-30T22:50:31.399Z,-1.01
2019-01-30T22:53:00.181Z,-1.05
2019-01-30T22:55:28.816Z,-1.10
2019-01-30T22:57:57.339Z,-1.16
2019-01-30T23:01:03.613Z,-1.25
2019-01-30T23:03:49.042Z,-1.24
2019-01-30T23:06:47.473Z,-1.29
2019-01-30T23:09:52.454Z,-1.34
2019-01-30T23:12:44.956Z,-1.35
2019-01-30T23:15:23.814Z,-1.35
2019-01-30T23:18:09.395Z,-1.36
2019-01-30T23:20:46.584Z,-1.34
2019-01-30T23:23:57.119Z,-1.34
2019-01-30T23:26:39.665Z,-1.32
2019-01-30T23:29:21.365Z,-1.31
2019-01-30T23:31:55.184Z,-1.29
2019-01-30T23:35:01.014Z,-1.24
2019-01-30T23:37:52.715Z,-1.23
2019-01-30T23:40:33.825Z,-1.22
2019-01-30T23:44:04.591Z,-1.19
2019-01-30T23:46:52.189Z,-1.19
2019-01-30T23:49:42.074Z,-1.17
2019-01-30T23:52:45.758Z,-1.15
2019-01-30T23:55:44.990Z,-1.12
2019-01-30T23:58:55.018Z,-1.17
